createdAt,value
2022-11-20T00:07:10.807Z,0
2022-11-20T00:35:58.357Z,0
2022-11-20T00:45:34.331Z,0
2022-11-20T00:55:09.665Z,0
2022-11-20T01:04:45.928Z,0
2022-11-20T01:14:22.015Z,0
2022-11-20T01:23:58.631Z,0
2022-11-20T01:33:35.132Z,0
2022-11-20T01:43:11.360Z,0
2022-11-20T01:52:47.762Z,0
2022-11-20T02:02:24.132Z,0
2022-11-20T02:12:00.049Z,0
2022-11-20T02:21:36.415Z,0
2022-11-20T02:31:12.643Z,0
2022-11-20T02:40:52.741Z,0
2022-11-20T02:50:24.838Z,0
2022-11-20T03:00:00.152Z,0
2022-11-20T03:09:35.820Z,0
2022-11-20T03:19:11.605Z,0
2022-11-20T03:28:47.630Z,0
2022-11-20T03:38:23.500Z,0
2022-11-20T03:47:58.995Z,0
2022-11-20T03:57:34.806Z,0
2022-11-20T04:07:10.663Z,0
2022-11-20T04:16:46.427Z,0
2022-11-20T04:26:21.937Z,0
2022-11-20T04:35:57.579Z,0
2022-11-20T04:55:08.004Z,0
2022-11-20T05:04:43.806Z,0
2022-11-20T05:14:19.568Z,0
2022-11-20T05:23:55.323Z,0
2022-11-20T05:33:31.282Z,0
2022-11-20T05:43:07.050Z,0
2022-11-20T05:52:43.127Z,0
2022-11-20T06:02:18.656Z,0
2022-11-20T06:11:54.387Z,0
2022-11-20T06:21:30.401Z,0
2022-11-20T06:31:06.417Z,0
2022-11-20T06:40:42.091Z,11.25
2022-11-20T06:50:18.405Z,16.88
2022-11-20T06:59:54.102Z,28.13
2022-11-20T07:09:30.339Z,45
2022-11-20T07:19:06.260Z,61.88
2022-11-20T07:28:43.149Z,67.5
2022-11-20T07:38:20.705Z,78.75
2022-11-20T07:47:58.548Z,95.63
2022-11-20T08:07:13.766Z,140.63
2022-11-20T08:16:50.697Z,202.5
2022-11-20T08:26:30.093Z,180
2022-11-20T08:36:06.338Z,196.88
2022-11-20T08:45:43.650Z,230.63
2022-11-20T08:55:20.787Z,236.25
2022-11-20T09:04:58.024Z,270
2022-11-20T09:14:34.353Z,185.63
2022-11-20T09:24:11.284Z,168.75
2022-11-20T09:33:47.481Z,140.63
2022-11-20T09:43:24.202Z,174.38
2022-11-20T09:53:01.247Z,213.75
2022-11-20T10:02:38.784Z,208.13
2022-11-20T10:12:15.889Z,286.88
2022-11-20T10:21:53.613Z,258.75
2022-11-20T10:31:29.661Z,196.88
2022-11-20T10:41:04.996Z,180
2022-11-20T10:50:41.052Z,140.63
2022-11-20T11:00:17.609Z,157.5
2022-11-20T11:09:54.252Z,157.5
2022-11-20T11:19:30.881Z,157.5
2022-11-20T11:29:07.487Z,106.88
2022-11-20T11:48:19.859Z,140.63
2022-11-20T11:57:57.007Z,151.88
2022-11-20T12:07:49.558Z,146.25
2022-11-20T12:17:11.335Z,168.75
2022-11-20T12:26:50.115Z,191.25
2022-11-20T12:36:26.181Z,163.13
2022-11-20T12:46:03.046Z,146.25
2022-11-20T12:55:38.794Z,95.63
2022-11-20T13:05:15.300Z,90
2022-11-20T13:14:52.101Z,101.25
2022-11-20T13:24:29.136Z,129.38
2022-11-20T13:34:05.849Z,101.25
2022-11-20T13:53:19.418Z,101.25
2022-11-20T14:02:55.964Z,90
2022-11-20T14:22:10.314Z,78.75
2022-11-20T14:31:52.759Z,106.88
2022-11-20T14:50:59.680Z,45
2022-11-20T15:10:11.491Z,16.88
2022-11-20T15:19:46.812Z,11.25
2022-11-20T15:29:21.978Z,5.63
2022-11-20T15:38:57.725Z,0
2022-11-20T15:48:33.324Z,0
2022-11-20T15:58:08.603Z,0
2022-11-20T16:07:46.179Z,0
2022-11-20T16:17:20.782Z,0
2022-11-20T16:26:57.108Z,0
2022-11-20T16:46:09.199Z,0
2022-11-20T17:05:21.762Z,0
2022-11-20T17:14:57.257Z,0
2022-11-20T17:24:34.729Z,0
2022-11-20T17:34:11.114Z,0
2022-11-20T17:43:47.802Z,0
2022-11-20T17:53:24.616Z,0
2022-11-20T18:03:01.102Z,0
2022-11-20T18:12:37.827Z,0
2022-11-20T18:22:13.997Z,0
2022-11-20T18:31:50.810Z,0
2022-11-20T18:41:27.433Z,0
2022-11-20T18:51:03.738Z,0
2022-11-20T19:00:40.544Z,0
2022-11-20T19:10:17.186Z,0
2022-11-20T19:29:30.313Z,0
2022-11-20T19:39:06.944Z,0
2022-11-20T19:48:43.450Z,0
2022-11-20T19:58:20.245Z,0
2022-11-20T20:07:55.993Z,0
2022-11-20T20:17:32.486Z,0
2022-11-20T20:27:08.972Z,0
2022-11-20T20:46:21.026Z,0
2022-11-20T20:55:57.319Z,0
2022-11-20T21:05:33.751Z,0
2022-11-20T21:15:10.016Z,0
2022-11-20T21:24:45.456Z,0
2022-11-20T21:34:22.280Z,0
2022-11-20T21:44:29.393Z,0
2022-11-20T21:53:35.017Z,0
2022-11-20T22:03:11.732Z,0
2022-11-20T22:22:25.087Z,0
2022-11-20T22:32:02.061Z,0
2022-11-20T22:41:38.374Z,0
2022-11-20T22:51:14.923Z,0
2022-11-20T23:00:51.716Z,0
2022-11-20T23:10:28.310Z,0
2022-11-20T23:58:32.041Z,0
